sensor_id;sensor_type;location;lat;lon;timestamp;P1;durP1;ratioP1;P2;durP2;ratioP2
19828;SDS011;10075;50.924;4.396;2023-06-22T00:02:16;8.68;;;5.10;;
19828;SDS011;10075;50.924;4.396;2023-06-22T00:04:44;7.25;;;4.40;;
19828;SDS011;10075;50.924;4.396;2023-06-22T00:07:12;9.13;;;4.57;;
19828;SDS011;10075;50.924;4.396;2023-06-22T00:09:39;9.23;;;5.15;;
19828;SDS011;10075;50.924;4.396;2023-06-22T00:12:06;7.15;;;5.00;;
19828;SDS011;10075;50.924;4.396;2023-06-22T00:14:34;10.25;;;4.93;;
19828;SDS011;10075;50.924;4.396;2023-06-22T00:17:01;8.18;;;5.70;;
19828;SDS011;10075;50.924;4.396;2023-06-22T00:19:28;7.45;;;5.93;;
19828;SDS011;10075;50.924;4.396;2023-06-22T00:21:55;7.00;;;6.00;;
19828;SDS011;10075;50.924;4.396;2023-06-22T00:24:26;9.35;;;5.28;;
19828;SDS011;10075;50.924;4.396;2023-06-22T00:26:53;5.93;;;5.25;;
19828;SDS011;10075;50.924;4.396;2023-06-22T00:29:20;8.38;;;5.85;;
19828;SDS011;10075;50.924;4.396;2023-06-22T00:31:47;9.25;;;5.28;;
19828;SDS011;10075;50.924;4.396;2023-06-22T00:34:14;10.60;;;5.03;;
19828;SDS011;10075;50.924;4.396;2023-06-22T00:36:42;9.48;;;5.40;;
19828;SDS011;10075;50.924;4.396;2023-06-22T00:39:08;7.68;;;5.35;;
19828;SDS011;10075;50.924;4.396;2023-06-22T00:41:37;6.93;;;5.68;;
19828;SDS011;10075;50.924;4.396;2023-06-22T00:44:04;9.63;;;5.20;;
19828;SDS011;10075;50.924;4.396;2023-06-22T00:46:31;9.10;;;5.40;;
19828;SDS011;10075;50.924;4.396;2023-06-22T00:48:59;7.82;;;5.28;;
19828;SDS011;10075;50.924;4.396;2023-06-22T00:51:26;9.13;;;4.70;;
19828;SDS011;10075;50.924;4.396;2023-06-22T00:53:53;8.98;;;5.30;;
19828;SDS011;10075;50.924;4.396;2023-06-22T00:56:22;8.38;;;5.45;;
19828;SDS011;10075;50.924;4.396;2023-06-22T00:58:51;6.05;;;4.60;;
19828;SDS011;10075;50.924;4.396;2023-06-22T01:01:19;5.82;;;4.55;;
19828;SDS011;10075;50.924;4.396;2023-06-22T01:03:48;6.28;;;5.47;;
19828;SDS011;10075;50.924;4.396;2023-06-22T01:06:19;8.32;;;5.13;;
19828;SDS011;10075;50.924;4.396;2023-06-22T01:08:53;7.03;;;5.10;;
19828;SDS011;10075;50.924;4.396;2023-06-22T01:11:28;7.40;;;4.85;;
19828;SDS011;10075;50.924;4.396;2023-06-22T01:14:01;7.05;;;4.63;;
19828;SDS011;10075;50.924;4.396;2023-06-22T01:16:34;8.27;;;4.75;;
19828;SDS011;10075;50.924;4.396;2023-06-22T01:19:05;9.02;;;4.82;;
19828;SDS011;10075;50.924;4.396;2023-06-22T01:21:44;6.25;;;4.28;;
19828;SDS011;10075;50.924;4.396;2023-06-22T01:24:15;8.95;;;5.63;;
19828;SDS011;10075;50.924;4.396;2023-06-22T01:26:51;7.75;;;5.18;;
19828;SDS011;10075;50.924;4.396;2023-06-22T01:29:27;10.00;;;5.25;;
19828;SDS011;10075;50.924;4.396;2023-06-22T01:31:56;8.65;;;5.00;;
19828;SDS011;10075;50.924;4.396;2023-06-22T01:34:25;8.02;;;5.20;;
19828;SDS011;10075;50.924;4.396;2023-06-22T01:36:53;7.47;;;5.45;;
19828;SDS011;10075;50.924;4.396;2023-06-22T01:39:20;9.55;;;5.22;;
19828;SDS011;10075;50.924;4.396;2023-06-22T01:41:48;8.98;;;5.45;;
19828;SDS011;10075;50.924;4.396;2023-06-22T01:44:16;8.15;;;5.28;;
19828;SDS011;10075;50.924;4.396;2023-06-22T01:46:45;6.95;;;5.57;;
19828;SDS011;10075;50.924;4.396;2023-06-22T01:49:12;13.50;;;5.57;;
19828;SDS011;10075;50.924;4.396;2023-06-22T01:51:40;8.93;;;5.70;;
19828;SDS011;10075;50.924;4.396;2023-06-22T01:54:07;7.90;;;6.15;;
19828;SDS011;10075;50.924;4.396;2023-06-22T01:56:34;10.07;;;6.15;;
19828;SDS011;10075;50.924;4.396;2023-06-22T01:59:04;10.52;;;6.28;;
19828;SDS011;10075;50.924;4.396;2023-06-22T02:01:35;9.30;;;7.07;;
19828;SDS011;10075;50.924;4.396;2023-06-22T02:04:11;8.70;;;5.72;;
19828;SDS011;10075;50.924;4.396;2023-06-22T02:06:42;7.65;;;5.82;;
19828;SDS011;10075;50.924;4.396;2023-06-22T02:09:13;7.28;;;5.75;;
19828;SDS011;10075;50.924;4.396;2023-06-22T02:11:42;9.88;;;6.03;;
19828;SDS011;10075;50.924;4.396;2023-06-22T02:14:12;9.40;;;4.93;;
19828;SDS011;10075;50.924;4.396;2023-06-22T02:16:40;7.05;;;5.50;;
19828;SDS011;10075;50.924;4.396;2023-06-22T02:19:09;8.02;;;5.88;;
19828;SDS011;10075;50.924;4.396;2023-06-22T02:21:36;7.90;;;5.72;;
19828;SDS011;10075;50.924;4.396;2023-06-22T02:24:03;8.35;;;5.80;;
19828;SDS011;10075;50.924;4.396;2023-06-22T02:26:30;7.57;;;5.68;;
19828;SDS011;10075;50.924;4.396;2023-06-22T02:28:59;9.98;;;6.20;;
19828;SDS011;10075;50.924;4.396;2023-06-22T02:31:26;7.68;;;6.57;;
19828;SDS011;10075;50.924;4.396;2023-06-22T02:33:55;9.20;;;6.15;;
19828;SDS011;10075;50.924;4.396;2023-06-22T02:36:25;11.98;;;6.22;;
19828;SDS011;10075;50.924;4.396;2023-06-22T02:38:52;7.63;;;5.70;;
19828;SDS011;10075;50.924;4.396;2023-06-22T02:41:22;8.88;;;6.28;;
19828;SDS011;10075;50.924;4.396;2023-06-22T02:43:49;10.65;;;6.38;;
19828;SDS011;10075;50.924;4.396;2023-06-22T02:46:16;10.23;;;6.28;;
19828;SDS011;10075;50.924;4.396;2023-06-22T02:48:43;8.95;;;6.30;;
19828;SDS011;10075;50.924;4.396;2023-06-22T02:51:10;12.10;;;6.55;;
19828;SDS011;10075;50.924;4.396;2023-06-22T02:53:38;7.82;;;6.10;;
19828;SDS011;10075;50.924;4.396;2023-06-22T02:56:09;7.68;;;5.75;;
19828;SDS011;10075;50.924;4.396;2023-06-22T02:58:37;9.98;;;5.50;;
19828;SDS011;10075;50.924;4.396;2023-06-22T03:01:05;9.52;;;5.90;;
19828;SDS011;10075;50.924;4.396;2023-06-22T03:03:35;9.20;;;6.03;;
19828;SDS011;10075;50.924;4.396;2023-06-22T03:06:02;9.43;;;5.85;;
19828;SDS011;10075;50.924;4.396;2023-06-22T03:08:29;8.02;;;5.88;;
19828;SDS011;10075;50.924;4.396;2023-06-22T03:10:57;9.52;;;6.88;;
19828;SDS011;10075;50.924;4.396;2023-06-22T03:13:24;10.65;;;6.78;;
19828;SDS011;10075;50.924;4.396;2023-06-22T03:15:53;8.98;;;6.65;;
19828;SDS011;10075;50.924;4.396;2023-06-22T03:18:20;10.93;;;6.38;;
19828;SDS011;10075;50.924;4.396;2023-06-22T03:20:48;13.52;;;7.13;;
19828;SDS011;10075;50.924;4.396;2023-06-22T03:23:15;8.07;;;6.75;;
19828;SDS011;10075;50.924;4.396;2023-06-22T03:25:42;10.45;;;6.78;;
19828;SDS011;10075;50.924;4.396;2023-06-22T03:28:11;8.18;;;6.78;;
19828;SDS011;10075;50.924;4.396;2023-06-22T03:30:38;9.55;;;6.57;;
19828;SDS011;10075;50.924;4.396;2023-06-22T03:33:05;10.23;;;6.38;;
19828;SDS011;10075;50.924;4.396;2023-06-22T03:35:32;9.07;;;5.97;;
19828;SDS011;10075;50.924;4.396;2023-06-22T03:37:59;8.07;;;6.60;;
19828;SDS011;10075;50.924;4.396;2023-06-22T03:40:26;11.02;;;7.00;;
19828;SDS011;10075;50.924;4.396;2023-06-22T03:42:53;9.85;;;7.20;;
19828;SDS011;10075;50.924;4.396;2023-06-22T03:45:21;13.05;;;7.25;;
19828;SDS011;10075;50.924;4.396;2023-06-22T03:47:48;11.25;;;6.78;;
19828;SDS011;10075;50.924;4.396;2023-06-22T03:50:15;10.20;;;7.40;;
19828;SDS011;10075;50.924;4.396;2023-06-22T03:52:45;11.55;;;7.55;;
19828;SDS011;10075;50.924;4.396;2023-06-22T03:55:12;11.15;;;6.75;;
19828;SDS011;10075;50.924;4.396;2023-06-22T03:57:39;11.23;;;7.30;;
19828;SDS011;10075;50.924;4.396;2023-06-22T04:00:06;9.65;;;6.50;;
19828;SDS011;10075;50.924;4.396;2023-06-22T04:02:36;13.30;;;7.47;;
19828;SDS011;10075;50.924;4.396;2023-06-22T04:05:03;8.63;;;6.70;;
19828;SDS011;10075;50.924;4.396;2023-06-22T04:07:31;11.70;;;6.75;;
19828;SDS011;10075;50.924;4.396;2023-06-22T04:09:58;9.57;;;7.10;;
19828;SDS011;10075;50.924;4.396;2023-06-22T04:12:25;13.15;;;7.55;;
19828;SDS011;10075;50.924;4.396;2023-06-22T04:14:52;10.20;;;7.50;;
19828;SDS011;10075;50.924;4.396;2023-06-22T04:17:18;13.68;;;8.48;;
19828;SDS011;10075;50.924;4.396;2023-06-22T04:19:47;14.32;;;8.27;;
19828;SDS011;10075;50.924;4.396;2023-06-22T04:22:14;14.55;;;8.70;;
19828;SDS011;10075;50.924;4.396;2023-06-22T04:24:41;26.90;;;9.20;;
19828;SDS011;10075;50.924;4.396;2023-06-22T04:27:08;15.10;;;8.55;;
19828;SDS011;10075;50.924;4.396;2023-06-22T04:29:35;16.92;;;8.73;;
19828;SDS011;10075;50.924;4.396;2023-06-22T04:32:03;20.15;;;10.27;;
19828;SDS011;10075;50.924;4.396;2023-06-22T04:34:31;29.23;;;9.57;;
19828;SDS011;10075;50.924;4.396;2023-06-22T04:36:59;17.65;;;8.68;;
19828;SDS011;10075;50.924;4.396;2023-06-22T04:39:26;19.63;;;9.68;;
19828;SDS011;10075;50.924;4.396;2023-06-22T04:41:53;18.15;;;9.73;;
19828;SDS011;10075;50.924;4.396;2023-06-22T04:44:25;21.75;;;9.02;;
19828;SDS011;10075;50.924;4.396;2023-06-22T04:46:53;13.85;;;9.48;;
19828;SDS011;10075;50.924;4.396;2023-06-22T04:49:25;16.10;;;9.45;;
19828;SDS011;10075;50.924;4.396;2023-06-22T04:51:59;12.48;;;8.02;;
19828;SDS011;10075;50.924;4.396;2023-06-22T04:54:26;20.50;;;9.20;;
19828;SDS011;10075;50.924;4.396;2023-06-22T04:56:53;15.45;;;9.27;;
19828;SDS011;10075;50.924;4.396;2023-06-22T04:59:22;15.88;;;9.00;;
19828;SDS011;10075;50.924;4.396;2023-06-22T05:01:53;14.73;;;9.55;;
19828;SDS011;10075;50.924;4.396;2023-06-22T05:04:20;15.25;;;9.93;;
19828;SDS011;10075;50.924;4.396;2023-06-22T05:06:48;19.02;;;9.27;;
19828;SDS011;10075;50.924;4.396;2023-06-22T05:09:16;14.43;;;9.82;;
19828;SDS011;10075;50.924;4.396;2023-06-22T05:11:43;13.68;;;9.52;;
19828;SDS011;10075;50.924;4.396;2023-06-22T05:14:10;15.18;;;9.10;;
19828;SDS011;10075;50.924;4.396;2023-06-22T05:16:37;15.18;;;10.82;;
19828;SDS011;10075;50.924;4.396;2023-06-22T05:19:05;19.67;;;11.32;;
19828;SDS011;10075;50.924;4.396;2023-06-22T05:21:32;17.63;;;11.85;;
19828;SDS011;10075;50.924;4.396;2023-06-22T05:23:59;15.45;;;10.38;;
19828;SDS011;10075;50.924;4.396;2023-06-22T05:26:29;21.65;;;10.05;;
19828;SDS011;10075;50.924;4.396;2023-06-22T05:28:57;14.05;;;9.45;;
19828;SDS011;10075;50.924;4.396;2023-06-22T05:31:25;15.90;;;10.45;;
19828;SDS011;10075;50.924;4.396;2023-06-22T05:33:53;18.75;;;11.95;;
19828;SDS011;10075;50.924;4.396;2023-06-22T05:36:21;15.50;;;11.18;;
19828;SDS011;10075;50.924;4.396;2023-06-22T05:38:50;20.42;;;11.55;;
19828;SDS011;10075;50.924;4.396;2023-06-22T05:41:17;24.02;;;11.68;;
19828;SDS011;10075;50.924;4.396;2023-06-22T05:43:46;18.13;;;11.15;;
19828;SDS011;10075;50.924;4.396;2023-06-22T05:46:13;22.65;;;11.82;;
19828;SDS011;10075;50.924;4.396;2023-06-22T05:48:40;18.42;;;11.52;;
19828;SDS011;10075;50.924;4.396;2023-06-22T05:51:07;19.77;;;11.20;;
19828;SDS011;10075;50.924;4.396;2023-06-22T05:53:34;17.05;;;11.85;;
19828;SDS011;10075;50.924;4.396;2023-06-22T05:56:01;16.48;;;10.60;;
19828;SDS011;10075;50.924;4.396;2023-06-22T05:58:29;17.00;;;10.80;;
19828;SDS011;10075;50.924;4.396;2023-06-22T06:00:57;19.67;;;11.57;;
19828;SDS011;10075;50.924;4.396;2023-06-22T06:03:25;17.75;;;11.68;;
19828;SDS011;10075;50.924;4.396;2023-06-22T06:05:53;18.02;;;12.00;;
19828;SDS011;10075;50.924;4.396;2023-06-22T06:08:20;19.10;;;13.10;;
19828;SDS011;10075;50.924;4.396;2023-06-22T06:10:48;17.08;;;12.23;;
19828;SDS011;10075;50.924;4.396;2023-06-22T06:13:15;27.75;;;13.20;;
19828;SDS011;10075;50.924;4.396;2023-06-22T06:15:42;18.52;;;13.32;;
19828;SDS011;10075;50.924;4.396;2023-06-22T06:18:10;21.40;;;12.98;;
19828;SDS011;10075;50.924;4.396;2023-06-22T06:20:37;27.00;;;13.75;;
19828;SDS011;10075;50.924;4.396;2023-06-22T06:23:04;24.58;;;14.40;;
19828;SDS011;10075;50.924;4.396;2023-06-22T06:25:31;19.45;;;13.40;;
19828;SDS011;10075;50.924;4.396;2023-06-22T06:27:58;18.13;;;13.55;;
19828;SDS011;10075;50.924;4.396;2023-06-22T06:30:25;19.27;;;13.32;;
19828;SDS011;10075;50.924;4.396;2023-06-22T06:32:52;19.50;;;13.40;;
19828;SDS011;10075;50.924;4.396;2023-06-22T06:35:20;16.10;;;13.07;;
19828;SDS011;10075;50.924;4.396;2023-06-22T06:37:49;16.63;;;12.80;;
19828;SDS011;10075;50.924;4.396;2023-06-22T06:40:17;19.17;;;13.10;;
19828;SDS011;10075;50.924;4.396;2023-06-22T06:42:46;17.52;;;13.15;;
19828;SDS011;10075;50.924;4.396;2023-06-22T06:45:16;18.05;;;13.68;;
19828;SDS011;10075;50.924;4.396;2023-06-22T06:47:44;17.90;;;13.15;;
19828;SDS011;10075;50.924;4.396;2023-06-22T06:50:11;22.63;;;13.85;;
19828;SDS011;10075;50.924;4.396;2023-06-22T06:52:40;19.15;;;13.30;;
19828;SDS011;10075;50.924;4.396;2023-06-22T06:55:08;18.30;;;13.65;;
19828;SDS011;10075;50.924;4.396;2023-06-22T06:57:37;18.85;;;14.55;;
19828;SDS011;10075;50.924;4.396;2023-06-22T07:00:04;19.95;;;13.55;;
19828;SDS011;10075;50.924;4.396;2023-06-22T07:02:37;20.13;;;13.55;;
19828;SDS011;10075;50.924;4.396;2023-06-22T07:05:04;16.95;;;13.32;;
19828;SDS011;10075;50.924;4.396;2023-06-22T07:07:31;22.65;;;14.60;;
19828;SDS011;10075;50.924;4.396;2023-06-22T07:10:00;19.25;;;15.10;;
19828;SDS011;10075;50.924;4.396;2023-06-22T07:12:28;18.67;;;13.35;;
19828;SDS011;10075;50.924;4.396;2023-06-22T07:14:56;16.20;;;14.38;;
19828;SDS011;10075;50.924;4.396;2023-06-22T07:17:28;16.27;;;13.88;;
19828;SDS011;10075;50.924;4.396;2023-06-22T07:19:55;24.17;;;15.70;;
19828;SDS011;10075;50.924;4.396;2023-06-22T07:22:22;20.25;;;15.07;;
19828;SDS011;10075;50.924;4.396;2023-06-22T07:24:48;21.65;;;14.25;;
19828;SDS011;10075;50.924;4.396;2023-06-22T07:27:17;19.58;;;15.18;;
19828;SDS011;10075;50.924;4.396;2023-06-22T07:29:45;25.23;;;15.95;;
19828;SDS011;10075;50.924;4.396;2023-06-22T07:32:12;29.00;;;14.73;;
19828;SDS011;10075;50.924;4.396;2023-06-22T07:34:39;22.60;;;13.27;;
19828;SDS011;10075;50.924;4.396;2023-06-22T07:37:06;20.95;;;13.93;;
19828;SDS011;10075;50.924;4.396;2023-06-22T07:39:33;21.98;;;14.77;;
19828;SDS011;10075;50.924;4.396;2023-06-22T07:42:00;22.38;;;14.52;;
19828;SDS011;10075;50.924;4.396;2023-06-22T07:44:28;23.08;;;15.02;;
19828;SDS011;10075;50.924;4.396;2023-06-22T07:46:55;19.15;;;14.45;;
19828;SDS011;10075;50.924;4.396;2023-06-22T07:49:22;22.38;;;14.48;;
19828;SDS011;10075;50.924;4.396;2023-06-22T07:51:49;21.80;;;14.93;;
19828;SDS011;10075;50.924;4.396;2023-06-22T07:54:16;26.83;;;15.05;;
19828;SDS011;10075;50.924;4.396;2023-06-22T07:56:43;32.92;;;15.00;;
19828;SDS011;10075;50.924;4.396;2023-06-22T07:59:12;25.98;;;14.45;;
19828;SDS011;10075;50.924;4.396;2023-06-22T08:01:40;24.70;;;15.40;;
19828;SDS011;10075;50.924;4.396;2023-06-22T08:04:08;28.15;;;12.85;;
19828;SDS011;10075;50.924;4.396;2023-06-22T08:06:35;28.20;;;14.95;;
19828;SDS011;10075;50.924;4.396;2023-06-22T08:09:02;26.15;;;14.15;;
19828;SDS011;10075;50.924;4.396;2023-06-22T08:11:29;30.98;;;14.95;;
19828;SDS011;10075;50.924;4.396;2023-06-22T08:13:56;19.77;;;14.15;;
19828;SDS011;10075;50.924;4.396;2023-06-22T08:16:23;18.83;;;15.38;;
19828;SDS011;10075;50.924;4.396;2023-06-22T08:18:52;20.98;;;15.13;;
19828;SDS011;10075;50.924;4.396;2023-06-22T08:21:19;20.45;;;15.02;;
19828;SDS011;10075;50.924;4.396;2023-06-22T08:23:47;22.55;;;15.18;;
19828;SDS011;10075;50.924;4.396;2023-06-22T08:26:14;28.30;;;14.95;;
19828;SDS011;10075;50.924;4.396;2023-06-22T08:28:41;32.28;;;15.23;;
19828;SDS011;10075;50.924;4.396;2023-06-22T08:31:08;31.95;;;16.58;;
19828;SDS011;10075;50.924;4.396;2023-06-22T08:33:37;37.33;;;17.00;;
19828;SDS011;10075;50.924;4.396;2023-06-22T08:36:07;46.25;;;16.92;;
19828;SDS011;10075;50.924;4.396;2023-06-22T08:38:36;31.25;;;16.77;;
19828;SDS011;10075;50.924;4.396;2023-06-22T08:41:03;30.80;;;16.27;;
19828;SDS011;10075;50.924;4.396;2023-06-22T08:43:30;25.55;;;15.30;;
19828;SDS011;10075;50.924;4.396;2023-06-22T08:45:57;23.88;;;15.38;;
19828;SDS011;10075;50.924;4.396;2023-06-22T08:48:24;20.92;;;15.70;;
19828;SDS011;10075;50.924;4.396;2023-06-22T08:50:50;21.55;;;16.40;;
19828;SDS011;10075;50.924;4.396;2023-06-22T08:53:19;17.75;;;15.55;;
19828;SDS011;10075;50.924;4.396;2023-06-22T08:55:46;18.48;;;14.93;;
19828;SDS011;10075;50.924;4.396;2023-06-22T08:58:13;17.88;;;15.30;;
19828;SDS011;10075;50.924;4.396;2023-06-22T09:00:40;35.13;;;15.18;;
19828;SDS011;10075;50.924;4.396;2023-06-22T09:03:07;17.90;;;14.63;;
19828;SDS011;10075;50.924;4.396;2023-06-22T09:05:34;19.10;;;15.70;;
19828;SDS011;10075;50.924;4.396;2023-06-22T09:08:01;22.23;;;16.08;;
19828;SDS011;10075;50.924;4.396;2023-06-22T09:10:29;19.08;;;15.10;;
19828;SDS011;10075;50.924;4.396;2023-06-22T09:12:56;19.15;;;15.10;;
19828;SDS011;10075;50.924;4.396;2023-06-22T09:15:23;18.35;;;15.38;;
19828;SDS011;10075;50.924;4.396;2023-06-22T09:17:51;17.98;;;13.77;;
19828;SDS011;10075;50.924;4.396;2023-06-22T09:20:19;18.17;;;13.20;;
19828;SDS011;10075;50.924;4.396;2023-06-22T09:22:46;15.65;;;13.45;;
19828;SDS011;10075;50.924;4.396;2023-06-22T09:25:14;16.27;;;14.10;;
19828;SDS011;10075;50.924;4.396;2023-06-22T09:27:42;17.95;;;14.60;;
19828;SDS011;10075;50.924;4.396;2023-06-22T09:30:10;15.45;;;13.82;;
19828;SDS011;10075;50.924;4.396;2023-06-22T09:32:37;18.63;;;14.38;;
19828;SDS011;10075;50.924;4.396;2023-06-22T09:35:04;16.92;;;13.05;;
19828;SDS011;10075;50.924;4.396;2023-06-22T09:37:33;19.98;;;14.07;;
19828;SDS011;10075;50.924;4.396;2023-06-22T09:40:00;17.40;;;14.73;;
19828;SDS011;10075;50.924;4.396;2023-06-22T09:42:31;22.73;;;15.10;;
19828;SDS011;10075;50.924;4.396;2023-06-22T09:45:00;12.75;;;10.77;;
19828;SDS011;10075;50.924;4.396;2023-06-22T09:47:27;15.07;;;12.43;;
19828;SDS011;10075;50.924;4.396;2023-06-22T09:49:55;19.67;;;14.85;;
19828;SDS011;10075;50.924;4.396;2023-06-22T09:52:24;17.23;;;15.43;;
19828;SDS011;10075;50.924;4.396;2023-06-22T09:54:51;18.88;;;14.77;;
19828;SDS011;10075;50.924;4.396;2023-06-22T09:57:18;24.80;;;17.35;;
19828;SDS011;10075;50.924;4.396;2023-06-22T09:59:47;23.33;;;16.08;;
19828;SDS011;10075;50.924;4.396;2023-06-22T10:02:15;30.60;;;19.58;;
19828;SDS011;10075;50.924;4.396;2023-06-22T10:04:42;26.70;;;18.98;;
19828;SDS011;10075;50.924;4.396;2023-06-22T10:07:09;24.13;;;19.00;;
19828;SDS011;10075;50.924;4.396;2023-06-22T10:09:36;27.02;;;20.80;;
19828;SDS011;10075;50.924;4.396;2023-06-22T10:12:03;24.52;;;19.83;;
19828;SDS011;10075;50.924;4.396;2023-06-22T10:14:30;26.55;;;21.60;;
19828;SDS011;10075;50.924;4.396;2023-06-22T10:16:57;31.42;;;23.15;;
19828;SDS011;10075;50.924;4.396;2023-06-22T10:19:25;28.40;;;18.42;;
19828;SDS011;10075;50.924;4.396;2023-06-22T10:21:52;28.50;;;23.20;;
19828;SDS011;10075;50.924;4.396;2023-06-22T10:24:20;30.38;;;24.08;;
19828;SDS011;10075;50.924;4.396;2023-06-22T10:26:47;28.60;;;22.73;;
19828;SDS011;10075;50.924;4.396;2023-06-22T10:29:14;69.45;;;30.35;;
19828;SDS011;10075;50.924;4.396;2023-06-22T10:31:41;71.18;;;38.25;;
19828;SDS011;10075;50.924;4.396;2023-06-22T10:34:08;60.42;;;39.85;;
19828;SDS011;10075;50.924;4.396;2023-06-22T10:36:36;79.80;;;48.33;;
19828;SDS011;10075;50.924;4.396;2023-06-22T10:39:03;56.63;;;36.55;;
19828;SDS011;10075;50.924;4.396;2023-06-22T10:41:31;71.05;;;43.45;;
19828;SDS011;10075;50.924;4.396;2023-06-22T10:43:57;85.63;;;48.33;;
19828;SDS011;10075;50.924;4.396;2023-06-22T10:46:25;67.60;;;44.35;;
19828;SDS011;10075;50.924;4.396;2023-06-22T10:48:52;86.95;;;48.40;;
19828;SDS011;10075;50.924;4.396;2023-06-22T10:51:22;64.68;;;44.10;;
19828;SDS011;10075;50.924;4.396;2023-06-22T10:53:50;64.80;;;44.65;;
19828;SDS011;10075;50.924;4.396;2023-06-22T10:56:17;70.78;;;46.25;;
19828;SDS011;10075;50.924;4.396;2023-06-22T10:58:45;66.70;;;45.33;;
19828;SDS011;10075;50.924;4.396;2023-06-22T11:01:12;76.75;;;47.17;;
19828;SDS011;10075;50.924;4.396;2023-06-22T11:03:39;64.03;;;43.55;;
19828;SDS011;10075;50.924;4.396;2023-06-22T11:06:06;61.60;;;42.00;;
19828;SDS011;10075;50.924;4.396;2023-06-22T11:08:33;72.68;;;45.83;;
19828;SDS011;10075;50.924;4.396;2023-06-22T11:11:01;70.97;;;46.10;;
19828;SDS011;10075;50.924;4.396;2023-06-22T11:13:28;63.92;;;41.90;;
19828;SDS011;10075;50.924;4.396;2023-06-22T11:15:55;61.42;;;40.10;;
19828;SDS011;10075;50.924;4.396;2023-06-22T11:18:22;59.85;;;40.65;;
19828;SDS011;10075;50.924;4.396;2023-06-22T11:20:50;48.88;;;35.30;;
19828;SDS011;10075;50.924;4.396;2023-06-22T11:23:17;53.88;;;37.28;;
19828;SDS011;10075;50.924;4.396;2023-06-22T11:25:44;52.90;;;37.92;;
19828;SDS011;10075;50.924;4.396;2023-06-22T11:28:13;44.40;;;33.15;;
19828;SDS011;10075;50.924;4.396;2023-06-22T11:30:40;44.95;;;32.53;;
19828;SDS011;10075;50.924;4.396;2023-06-22T11:33:07;46.28;;;32.67;;
19828;SDS011;10075;50.924;4.396;2023-06-22T11:35:34;36.42;;;29.08;;
19828;SDS011;10075;50.924;4.396;2023-06-22T11:38:01;38.08;;;29.50;;
19828;SDS011;10075;50.924;4.396;2023-06-22T11:40:30;38.58;;;30.42;;
19828;SDS011;10075;50.924;4.396;2023-06-22T11:42:57;39.13;;;29.70;;
19828;SDS011;10075;50.924;4.396;2023-06-22T11:45:25;35.45;;;29.10;;
19828;SDS011;10075;50.924;4.396;2023-06-22T11:47:53;39.50;;;31.27;;
19828;SDS011;10075;50.924;4.396;2023-06-22T11:50:20;34.95;;;27.23;;
19828;SDS011;10075;50.924;4.396;2023-06-22T11:52:47;39.05;;;30.77;;
19828;SDS011;10075;50.924;4.396;2023-06-22T11:55:14;38.47;;;30.20;;
19828;SDS011;10075;50.924;4.396;2023-06-22T11:57:52;45.13;;;30.55;;
19828;SDS011;10075;50.924;4.396;2023-06-22T12:00:20;37.50;;;31.00;;
19828;SDS011;10075;50.924;4.396;2023-06-22T12:02:50;39.10;;;30.63;;
19828;SDS011;10075;50.924;4.396;2023-06-22T12:05:18;43.92;;;33.83;;
19828;SDS011;10075;50.924;4.396;2023-06-22T12:07:46;41.40;;;31.58;;
19828;SDS011;10075;50.924;4.396;2023-06-22T12:10:14;35.10;;;29.55;;
19828;SDS011;10075;50.924;4.396;2023-06-22T12:12:41;36.58;;;29.90;;
19828;SDS011;10075;50.924;4.396;2023-06-22T12:15:08;36.30;;;30.30;;
19828;SDS011;10075;50.924;4.396;2023-06-22T12:17:36;33.85;;;29.65;;
19828;SDS011;10075;50.924;4.396;2023-06-22T12:20:06;44.78;;;31.95;;
19828;SDS011;10075;50.924;4.396;2023-06-22T12:22:34;41.72;;;34.08;;
19828;SDS011;10075;50.924;4.396;2023-06-22T12:25:02;41.80;;;33.85;;
19828;SDS011;10075;50.924;4.396;2023-06-22T12:27:30;45.33;;;34.88;;
19828;SDS011;10075;50.924;4.396;2023-06-22T12:29:57;56.80;;;41.67;;
19828;SDS011;10075;50.924;4.396;2023-06-22T12:32:24;47.10;;;36.42;;
19828;SDS011;10075;50.924;4.396;2023-06-22T12:34:51;48.72;;;38.10;;
19828;SDS011;10075;50.924;4.396;2023-06-22T12:37:20;64.65;;;43.83;;
19828;SDS011;10075;50.924;4.396;2023-06-22T12:39:47;58.55;;;42.15;;
19828;SDS011;10075;50.924;4.396;2023-06-22T12:42:15;65.30;;;44.00;;
19828;SDS011;10075;50.924;4.396;2023-06-22T12:44:42;67.47;;;45.38;;
19828;SDS011;10075;50.924;4.396;2023-06-22T12:47:09;77.00;;;49.55;;
19828;SDS011;10075;50.924;4.396;2023-06-22T12:49:36;90.50;;;53.13;;
19828;SDS011;10075;50.924;4.396;2023-06-22T12:52:08;84.28;;;51.88;;
19828;SDS011;10075;50.924;4.396;2023-06-22T12:54:37;81.35;;;52.60;;
19828;SDS011;10075;50.924;4.396;2023-06-22T12:57:04;107.50;;;55.97;;
19828;SDS011;10075;50.924;4.396;2023-06-22T12:59:32;105.47;;;61.55;;
19828;SDS011;10075;50.924;4.396;2023-06-22T13:01:59;98.43;;;56.03;;
19828;SDS011;10075;50.924;4.396;2023-06-22T13:04:26;92.38;;;56.05;;
19828;SDS011;10075;50.924;4.396;2023-06-22T13:06:53;95.03;;;57.80;;
19828;SDS011;10075;50.924;4.396;2023-06-22T13:09:20;89.95;;;56.30;;
19828;SDS011;10075;50.924;4.396;2023-06-22T13:11:48;103.85;;;59.53;;
19828;SDS011;10075;50.924;4.396;2023-06-22T13:14:17;102.85;;;60.67;;
19828;SDS011;10075;50.924;4.396;2023-06-22T13:16:44;105.63;;;58.83;;
19828;SDS011;10075;50.924;4.396;2023-06-22T13:19:11;93.10;;;57.75;;
19828;SDS011;10075;50.924;4.396;2023-06-22T13:21:39;103.05;;;59.40;;
19828;SDS011;10075;50.924;4.396;2023-06-22T13:24:06;101.90;;;59.70;;
19828;SDS011;10075;50.924;4.396;2023-06-22T13:26:33;76.63;;;49.38;;
19828;SDS011;10075;50.924;4.396;2023-06-22T13:29:02;116.10;;;61.63;;
19828;SDS011;10075;50.924;4.396;2023-06-22T13:31:29;90.43;;;57.97;;
19828;SDS011;10075;50.924;4.396;2023-06-22T13:33:56;109.38;;;62.05;;
19828;SDS011;10075;50.924;4.396;2023-06-22T13:36:23;125.72;;;61.47;;
19828;SDS011;10075;50.924;4.396;2023-06-22T13:38:50;116.47;;;61.42;;
19828;SDS011;10075;50.924;4.396;2023-06-22T13:41:17;101.93;;;60.72;;
19828;SDS011;10075;50.924;4.396;2023-06-22T13:43:44;124.90;;;67.78;;
19828;SDS011;10075;50.924;4.396;2023-06-22T13:46:12;114.78;;;63.30;;
19828;SDS011;10075;50.924;4.396;2023-06-22T13:48:39;109.13;;;62.50;;
19828;SDS011;10075;50.924;4.396;2023-06-22T13:51:06;111.35;;;62.60;;
19828;SDS011;10075;50.924;4.396;2023-06-22T13:53:33;124.63;;;64.65;;
19828;SDS011;10075;50.924;4.396;2023-06-22T13:56:00;131.45;;;70.47;;
19828;SDS011;10075;50.924;4.396;2023-06-22T13:58:27;162.25;;;78.65;;
19828;SDS011;10075;50.924;4.396;2023-06-22T14:00:54;121.25;;;66.90;;
19828;SDS011;10075;50.924;4.396;2023-06-22T14:03:22;143.70;;;72.75;;
19828;SDS011;10075;50.924;4.396;2023-06-22T14:05:50;136.52;;;72.35;;
19828;SDS011;10075;50.924;4.396;2023-06-22T14:08:19;123.10;;;67.50;;
19828;SDS011;10075;50.924;4.396;2023-06-22T14:10:48;129.95;;;70.10;;
19828;SDS011;10075;50.924;4.396;2023-06-22T14:13:15;107.05;;;65.65;;
19828;SDS011;10075;50.924;4.396;2023-06-22T14:15:43;99.38;;;63.60;;
19828;SDS011;10075;50.924;4.396;2023-06-22T14:18:13;114.80;;;66.38;;
19828;SDS011;10075;50.924;4.396;2023-06-22T14:20:42;121.03;;;68.65;;
19828;SDS011;10075;50.924;4.396;2023-06-22T14:23:09;148.18;;;76.20;;
19828;SDS011;10075;50.924;4.396;2023-06-22T14:25:36;136.00;;;68.07;;
19828;SDS011;10075;50.924;4.396;2023-06-22T14:28:03;166.73;;;79.22;;
19828;SDS011;10075;50.924;4.396;2023-06-22T14:30:30;132.63;;;75.95;;
19828;SDS011;10075;50.924;4.396;2023-06-22T14:32:57;144.00;;;80.45;;